CG Aspen — NTUG — position and weather

sailwx.info

Track history (hours):
 
Tides and Currents Weather Stations Pressure Air Temp Water Temp Dewpoint Dewpoint Depression Visibility Wind Speed Wind Dir Waves Ship Positions

CG Aspen

Last reported at 2018-Apr-13 19:20 UTC. Time now 2018-Apr-23 15:00 UTC.
Position N 37°49' W 122°22'.
Warning: this ship's position is 9 days out of date.

Length 68 m; draft 4 m.

Type: Law enforcement. MMSI: 303865000.

Date/timePositionNaut miles runAvg speedWind from/ knotsBaromVisibWave heightAir tempDewpointWater temp
2018-Apr-13 19:20N 37°49' W 122°22'0 0.6
2018-Apr-13 19:00N 37°49' W 122°21'0 0.7
2018-Apr-13 18:31N 37°48' W 122°21'4 7.9
2018-Apr-13 18:00N 37°49' W 122°26'2 4.9
2018-Apr-13 17:30N 37°48' W 122°23'4 7.8
2018-Apr-13 17:00N 37°45' W 122°21'3 5.3
2018-Apr-13 16:31N 37°43' W 122°20'0 0.0
2018-Apr-13 15:30N 37°43' W 122°20'0 0.0
2018-Apr-13 15:00N 37°43' W 122°20'0 0.0
2018-Apr-13 14:30N 37°43' W 122°20'0 0.0
2018-Apr-13 14:00N 37°43' W 122°20'0 0.0
2018-Apr-13 13:30N 37°43' W 122°20'0 0.0
2018-Apr-13 13:00N 37°43' W 122°20'0 0.0
2018-Apr-13 12:30N 37°43' W 122°20'0 0.0
2018-Apr-13 12:00N 37°43' W 122°20'0 0.1
2018-Apr-13 11:30N 37°43' W 122°20'0 0.0
2018-Apr-13 10:58N 37°43' W 122°20'0 0.0
2018-Apr-13 10:28N 37°43' W 122°20'0 0.0
2018-Apr-13 09:58N 37°43' W 122°20'0 0.0
2018-Apr-13 09:28N 37°43' W 122°20'0 0.0
2018-Apr-13 08:58N 37°43' W 122°20'0 0.1
2018-Apr-13 08:28N 37°43' W 122°20'0 0.0
2018-Apr-13 07:58N 37°43' W 122°20'0 0.0
2018-Apr-13 07:28N 37°43' W 122°20'0 0.0
2018-Apr-13 06:58N 37°43' W 122°20'0 0.0
2018-Apr-13 06:31N 37°43' W 122°20'0 0.0
2018-Apr-13 06:00N 37°43' W 122°20'0 0.0
2018-Apr-13 05:30N 37°43' W 122°20'0 0.0
2018-Apr-13 04:57N 37°43' W 122°20'0 0.0
2018-Apr-13 04:30N 37°43' W 122°20'0 0.0
2018-Apr-13 04:00N 37°43' W 122°20'0 0.1
2018-Apr-13 03:25N 37°43' W 122°20'0 0.1
2018-Apr-13 02:55N 37°43' W 122°20'0 0.1
2018-Apr-13 02:29N 37°43' W 122°20'0 0.0
2018-Apr-13 01:53N 37°43' W 122°20'0 0.0
2018-Apr-13 01:29N 37°43' W 122°20'0 0.0
2018-Apr-13 00:56N 37°43' W 122°20'0 0.0
2018-Apr-13 00:25N 37°43' W 122°20'0 0.0
2018-Apr-12 23:55N 37°43' W 122°20'0 0.0
2018-Apr-12 23:29N 37°43' W 122°20'0 0.0
2018-Apr-12 22:59N 37°43' W 122°20'0 0.1
2018-Apr-12 22:29N 37°43' W 122°20'0 0.1
2018-Apr-12 21:58N 37°43' W 122°20'0 0.0
2018-Apr-12 21:28N 37°43' W 122°20'0 0.1
2018-Apr-12 21:00N 37°43' W 122°20'1 1.8
2018-Apr-12 20:31N 37°43' W 122°19'1 2.4
2018-Apr-12 20:00N 37°42' W 122°20'3 5.2
2018-Apr-12 19:30N 37°44' W 122°21'1 2.6
2018-Apr-12 19:00N 37°45' W 122°22'0 0.0
2018-Apr-12 18:30N 37°45' W 122°22'0 0.0
2018-Apr-12 18:00N 37°45' W 122°22'0 0.0
2018-Apr-12 17:30N 37°45' W 122°22'0 0.0
2018-Apr-12 17:00N 37°45' W 122°22'0 0.0
2018-Apr-12 16:30N 37°45' W 122°22'3 6.4
2018-Apr-12 16:00N 37°43' W 122°21'1 1.3
2018-Apr-12 15:30N 37°42' W 122°20'0 0.1
2018-Apr-12 15:00N 37°42' W 122°20'0 0.0
2018-Apr-12 14:30N 37°42' W 122°20'0 0.0
2018-Apr-12 14:00N 37°42' W 122°20'0 0.0
2018-Apr-12 13:28N 37°42' W 122°20'0 0.0
2018-Apr-12 13:00N 37°42' W 122°20'0 0.0
2018-Apr-12 12:30N 37°42' W 122°20'0 0.0
2018-Apr-12 12:00N 37°43' W 122°20'0 0.0
2018-Apr-12 11:30N 37°43' W 122°20'0 0.1
2018-Apr-12 10:58N 37°43' W 122°20'0 0.1
2018-Apr-12 10:27N 37°43' W 122°20'0 0.0
2018-Apr-12 09:55N 37°43' W 122°20'0 0.0
2018-Apr-12 09:27N 37°43' W 122°20'0 0.0
2018-Apr-12 08:57N 37°43' W 122°20'0 0.1
2018-Apr-12 08:25N 37°42' W 122°20'0 0.0
2018-Apr-12 07:58N 37°42' W 122°20'0 0.1
2018-Apr-12 07:28N 37°42' W 122°20'0 0.0
2018-Apr-12 06:58N 37°42' W 122°20'0 0.1
2018-Apr-12 06:28N 37°42' W 122°20'0 0.1
2018-Apr-12 05:49N 37°42' W 122°20'0 0.0
2018-Apr-12 05:28N 37°42' W 122°20'0 0.1
2018-Apr-12 04:55N 37°42' W 122°20'0 0.0
2018-Apr-12 04:31N 37°42' W 122°20'0 0.0
2018-Apr-12 03:52N 37°42' W 122°20'0 0.0
2018-Apr-12 03:31N 37°42' W 122°20'0 0.0
2018-Apr-12 03:00N 37°42' W 122°20'0 0.1
2018-Apr-12 02:30N 37°42' W 122°20'0 0.2
2018-Apr-12 02:00N 37°42' W 122°20'3 5.0
2018-Apr-12 01:30N 37°44' W 122°21'5 9.2
2018-Apr-12 01:01N 37°49' W 122°24'5 9.9
2018-Apr-12 00:31N 37°48' W 122°30'510.7
2018-Apr-12 00:00N 37°46' W 122°36'5 9.2
2018-Apr-11 23:30N 37°42' W 122°37'612.2
2018-Apr-11 23:00N 37°36' W 122°37'612.4
2018-Apr-11 22:30N 37°30' W 122°40'612.8
2018-Apr-11 22:00N 37°23' W 122°40'612.5
2018-Apr-11 21:30N 37°17' W 122°41'713.1
2018-Apr-11 21:00N 37°12' W 122°47'712.8
2018-Apr-11 20:29N 37°07' W 122°52'13 1.4
2018-Apr-11 11:05N 36°55' W 122°57'1 7.2
2018-Apr-11 10:59N 36°55' W 122°56'0 0.3
2018-Apr-11 10:30N 36°55' W 122°56'2 2.9
2018-Apr-11 09:56N 36°55' W 122°58'3 6.1
2018-Apr-11 09:30N 36°54' W 122°55'4 7.5
2018-Apr-11 08:57N 36°55' W 123°00'4 7.6
2018-Apr-11 08:23N 36°56' W 123°05'9 6.1
2018-Apr-11 07:00N 36°55' W 122°55'6 7.6
2018-Apr-11 06:09N 36°55' W 123°03'61 5.8
2018-Apr-10 19:38N 36°48' W 121°48'0 0.0
2018-Apr-10 19:13N 36°48' W 121°48'7 6.5
2018-Apr-10 18:10N 36°45' W 121°55'2 9.1
2018-Apr-10 18:00N 36°44' W 121°57'5 8.6
2018-Apr-10 17:23N 36°39' W 121°59'4 1.6
2018-Apr-10 14:49N 36°35' W 122°01'3 6.4
2018-Apr-10 14:25N 36°36' W 122°04'3 7.9
2018-Apr-10 14:00N 36°36' W 122°08'5 9.0
2018-Apr-10 13:30N 36°37' W 122°14'4 7.6
2018-Apr-10 13:00N 36°37' W 122°18'3 6.8
2018-Apr-10 12:30N 36°38' W 122°22'3 5.3
2018-Apr-10 12:00N 36°39' W 122°26'2 4.2
2018-Apr-10 11:30N 36°40' W 122°27'2 4.0
2018-Apr-10 11:00N 36°42' W 122°29'2 4.7
2018-Apr-10 10:30N 36°43' W 122°31'3 6.0
2018-Apr-10 10:00N 36°46' W 122°33'3 5.8
2018-Apr-10 09:30N 36°48' W 122°36'3 5.5
2018-Apr-10 09:00N 36°49' W 122°39'3 5.1
2018-Apr-10 08:30N 36°51' W 122°41'2 4.6
2018-Apr-10 08:00N 36°53' W 122°42'2 4.7
2018-Apr-10 07:30N 36°56' W 122°42'2 4.7
2018-Apr-10 06:59N 36°58' W 122°43'2 4.8
2018-Apr-10 06:30N 37°00' W 122°43'3 5.2
2018-Apr-10 06:00N 37°03' W 122°43'3 5.7
2018-Apr-10 05:29N 37°06' W 122°43'3 5.8
2018-Apr-10 05:00N 37°09' W 122°43'3 5.6
2018-Apr-10 04:30N 37°11' W 122°43'3 6.0
2018-Apr-10 04:00N 37°14' W 122°43'3 6.1
2018-Apr-10 03:30N 37°17' W 122°43'3 6.1
2018-Apr-10 03:01N 37°20' W 122°44'3 6.1
2018-Apr-10 02:30N 37°24' W 122°44'3 6.2
2018-Apr-10 02:00N 37°27' W 122°44'3 6.5
2018-Apr-10 01:30N 37°30' W 122°44'3 7.0
2018-Apr-10 01:00N 37°32' W 122°40'5 9.4
2018-Apr-10 00:30N 37°32' W 122°34'1 1.6
2018-Apr-10 00:00N 37°32' W 122°33'0 0.2
2018-Apr-09 23:30N 37°32' W 122°33'1 1.8
2018-Apr-09 23:01N 37°32' W 122°34'5 9.6
2018-Apr-09 22:30N 37°36' W 122°36'611.2
2018-Apr-09 22:00N 37°42' W 122°37'5 9.3
2018-Apr-09 21:30N 37°46' W 122°37'612.5
2018-Apr-09 21:01N 37°49' W 122°30'5 9.9
2018-Apr-09 20:30N 37°49' W 122°23'5 9.9
2018-Apr-09 20:00N 37°44' W 122°21'2 4.8
2018-Apr-09 19:30N 37°42' W 122°19'0 0.8
2018-Apr-09 19:00N 37°43' W 122°20'1 1.7
2018-Apr-09 18:30N 37°43' W 122°19'1 1.2
2018-Apr-09 18:00N 37°43' W 122°19'1 2.8
2018-Apr-09 17:30N 37°42' W 122°20'2 4.1
2018-Apr-09 17:00N 37°44' W 122°21'3 6.3
2018-Apr-09 16:30N 37°47' W 122°22'2 3.1
2018-Apr-09 15:58N 37°49' W 122°22'0 0.0
2018-Apr-09 15:28N 37°49' W 122°22'0 0.0
2018-Apr-09 14:58N 37°49' W 122°22'0 0.0
2018-Apr-09 14:29N 37°49' W 122°22'0 0.0
2018-Apr-09 13:59N 37°49' W 122°22'0 0.0
2018-Apr-09 13:25N 37°49' W 122°22'0 0.0
2018-Apr-09 12:59N 37°49' W 122°22'0 0.0
2018-Apr-09 12:29N 37°49' W 122°22'0 0.0
2018-Apr-09 11:55N 37°49' W 122°22'0 0.0
2018-Apr-09 11:28N 37°49' W 122°22'0 0.0
2018-Apr-09 10:58N 37°49' W 122°22'0 0.0
2018-Apr-09 10:28N 37°49' W 122°22'0 0.0
2018-Apr-09 09:55N 37°49' W 122°22'0 0.0
2018-Apr-09 09:28N 37°49' W 122°22'0 0.0
2018-Apr-09 08:55N 37°49' W 122°22'0 0.0
2018-Apr-09 08:28N 37°49' W 122°22'0 0.0
2018-Apr-09 07:58N 37°49' W 122°22'0 0.0
2018-Apr-09 07:29N 37°49' W 122°22'0 0.0
2018-Apr-09 06:59N 37°49' W 122°22'0 0.0
2018-Apr-09 06:29N 37°49' W 122°22'0 0.0
2018-Apr-09 05:59N 37°49' W 122°22'0 0.0
2018-Apr-09 05:20N 37°49' W 122°22'0 0.0
2018-Apr-09 04:56N 37°49' W 122°22'0 0.0
2018-Apr-09 04:23N 37°49' W 122°22'0 0.0
2018-Apr-09 03:56N 37°49' W 122°22'0 0.0
2018-Apr-09 03:29N 37°49' W 122°22'0 0.0
2018-Apr-09 02:52N 37°49' W 122°22'0 0.0
2018-Apr-09 02:28N 37°49' W 122°22'0 0.0
2018-Apr-09 01:52N 37°49' W 122°22'0 0.0
2018-Apr-09 01:28N 37°49' W 122°22'0 0.0
2018-Apr-09 00:58N 37°49' W 122°22'0 0.0
2018-Apr-09 00:28N 37°49' W 122°22'0 0.0
2018-Apr-08 23:52N 37°49' W 122°22'0 0.0
2018-Apr-08 23:28N 37°49' W 122°22'0 0.0
2018-Apr-08 22:59N 37°49' W 122°22'0 0.0
2018-Apr-08 22:29N 37°49' W 122°22'0 0.0
2018-Apr-08 21:59N 37°49' W 122°22'0 0.0
2018-Apr-08 21:29N 37°49' W 122°22'0 0.0
2018-Apr-08 20:59N 37°49' W 122°22'0 0.0
2018-Apr-08 20:29N 37°49' W 122°22'0 0.0
2018-Apr-08 19:53N 37°49' W 122°22'0 0.0
2018-Apr-08 19:29N 37°49' W 122°22'0 0.0
2018-Apr-08 18:58N 37°49' W 122°22'0 0.0
2018-Apr-08 18:28N 37°49' W 122°22'0 0.0
2018-Apr-08 17:58N 37°49' W 122°22'0 0.0
2018-Apr-08 17:26N 37°49' W 122°22'0 0.0
2018-Apr-08 16:58N 37°49' W 122°22'0 0.0
2018-Apr-08 16:28N 37°49' W 122°22'0 0.0
2018-Apr-08 15:55N 37°49' W 122°22'0 0.0
2018-Apr-08 15:29N 37°49' W 122°22'0 0.0
2018-Apr-08 14:59N 37°49' W 122°22'0 0.0
2018-Apr-08 14:25N 37°49' W 122°22'0 0.0
2018-Apr-08 13:59N 37°49' W 122°22'0 0.0
2018-Apr-08 13:29N 37°49' W 122°22'0 0.0
2018-Apr-08 12:59N 37°49' W 122°22'0 0.0
2018-Apr-08 12:29N 37°49' W 122°22'0 0.0
2018-Apr-08 11:58N 37°49' W 122°22'0 0.0
2018-Apr-08 11:28N 37°49' W 122°22'0 0.0
2018-Apr-08 10:55N 37°49' W 122°22'0 0.0
2018-Apr-08 10:28N 37°49' W 122°22'0 0.0
2018-Apr-08 09:58N 37°49' W 122°22'0 0.0
2018-Apr-08 09:26N 37°49' W 122°22'0 0.0
2018-Apr-08 08:56N 37°49' W 122°22'0 0.0
2018-Apr-08 08:29N 37°49' W 122°22'0 0.0
2018-Apr-08 07:56N 37°49' W 122°22'0 0.0
2018-Apr-08 07:26N 37°49' W 122°22'0 0.0
2018-Apr-08 06:56N 37°49' W 122°22'0 0.0
2018-Apr-08 06:29N 37°49' W 122°22'0 0.0
2018-Apr-08 05:59N 37°49' W 122°22'0 0.0
2018-Apr-08 05:26N 37°49' W 122°22'0 0.0
2018-Apr-08 04:59N 37°49' W 122°22'0 0.0
2018-Apr-08 04:29N 37°49' W 122°22'0 0.0
2018-Apr-08 03:59N 37°49' W 122°22'0 0.0
2018-Apr-08 03:25N 37°49' W 122°22'0 0.0
2018-Apr-08 02:59N 37°49' W 122°22'0 0.0
2018-Apr-08 02:28N 37°49' W 122°22'0 0.0
2018-Apr-08 01:58N 37°49' W 122°22'0 0.0
2018-Apr-08 01:19N 37°49' W 122°22'0 0.0
2018-Apr-08 00:58N 37°49' W 122°22'0 0.0
2018-Apr-08 00:28N 37°49' W 122°22'0 0.0
2018-Apr-07 23:58N 37°49' W 122°22'0 0.0
2018-Apr-07 23:26N 37°49' W 122°22'0 0.0
2018-Apr-07 22:56N 37°49' W 122°22'0 0.0
2018-Apr-07 22:26N 37°49' W 122°22'0 0.0
2018-Apr-07 21:59N 37°49' W 122°22'0 0.0
2018-Apr-07 21:29N 37°49' W 122°22'0 0.0
2018-Apr-07 20:59N 37°49' W 122°22'0 0.0
2018-Apr-07 20:29N 37°49' W 122°22'0 0.0
2018-Apr-07 19:59N 37°49' W 122°22'0 0.0
2018-Apr-07 19:28N 37°49' W 122°22'0 0.0
2018-Apr-07 18:58N 37°49' W 122°22'0 0.0
2018-Apr-07 18:28N 37°49' W 122°22'0 0.0
2018-Apr-07 17:55N 37°49' W 122°22'0 0.0
2018-Apr-07 17:28N 37°49' W 122°22'0 0.0
2018-Apr-07 16:59N 37°49' W 122°22'0 0.0
2018-Apr-07 16:23N 37°49' W 122°22'0 0.0
2018-Apr-07 15:59N 37°49' W 122°22'0 0.0
2018-Apr-07 15:29N 37°49' W 122°22'0 0.0
2018-Apr-07 14:59N 37°49' W 122°22'0 0.0
2018-Apr-07 14:26N 37°49' W 122°22'0 0.0
2018-Apr-07 13:59N 37°49' W 122°22'0 0.0
2018-Apr-07 13:26N 37°49' W 122°22'0 0.0
2018-Apr-07 12:59N 37°49' W 122°22'0 0.0
2018-Apr-07 12:29N 37°49' W 122°22'0 0.0
2018-Apr-07 11:59N 37°49' W 122°22'0 0.0
2018-Apr-07 11:29N 37°49' W 122°22'0 0.0
2018-Apr-07 10:59N 37°49' W 122°22'0 0.0
2018-Apr-07 10:30N 37°49' W 122°22'0 0.0
2018-Apr-07 10:00N 37°49' W 122°22'0 0.0
2018-Apr-07 09:30N 37°49' W 122°22'0 0.0
2018-Apr-07 09:00N 37°49' W 122°22'0 0.0
2018-Apr-07 08:30N 37°49' W 122°22'0 0.0
2018-Apr-07 08:00N 37°49' W 122°22'0 0.0
2018-Apr-07 07:27N 37°49' W 122°22'0 0.0
2018-Apr-07 07:00N 37°49' W 122°22'0 0.0
2018-Apr-07 06:30N 37°49' W 122°22'0 0.0
2018-Apr-07 06:00N 37°49' W 122°22'0 0.0
2018-Apr-07 05:30N 37°49' W 122°22'0 0.0
2018-Apr-07 05:00N 37°49' W 122°22'0 0.0
2018-Apr-07 04:27N 37°49' W 122°22'0 0.0
2018-Apr-07 04:00N 37°49' W 122°22'0 0.0
2018-Apr-07 03:27N 37°49' W 122°22'0 0.0
2018-Apr-07 03:00N 37°49' W 122°22'0 0.0
2018-Apr-07 02:30N 37°49' W 122°22'0 0.0
2018-Apr-07 02:00N 37°49' W 122°22'0 0.0
2018-Apr-07 01:30N 37°49' W 122°22'0 0.0
2018-Apr-07 01:00N 37°49' W 122°22'0 0.0
2018-Apr-07 00:24N 37°49' W 122°22'0 0.0
2018-Apr-07 00:00N 37°49' W 122°22'0 0.0
2018-Apr-06 23:30N 37°49' W 122°22'0 0.0
2018-Apr-06 23:00N 37°49' W 122°22'0 0.0
2018-Apr-06 22:24N 37°49' W 122°22'0 0.0
2018-Apr-06 21:54N 37°49' W 122°22'0 0.0
2018-Apr-06 21:30N 37°49' W 122°22'0 0.0
2018-Apr-06 21:00N 37°49' W 122°22'0 0.0
2018-Apr-06 20:30N 37°49' W 122°22'0 0.0
2018-Apr-06 20:00N 37°49' W 122°22'0 0.0
2018-Apr-06 19:27N 37°49' W 122°22'0 0.0
2018-Apr-06 18:57N 37°49' W 122°22'0 0.0
2018-Apr-06 18:29N 37°49' W 122°22'0 0.0
2018-Apr-06 18:00N 37°49' W 122°22'0 0.0
2018-Apr-06 17:27N 37°49' W 122°22'0 0.0
2018-Apr-06 17:00N 37°49' W 122°22'0 0.0
2018-Apr-06 16:30N 37°49' W 122°22'0 0.0
2018-Apr-06 16:00N 37°49' W 122°22'0 0.0
2018-Apr-06 15:30N 37°49' W 122°22'0 0.0
2018-Apr-06 14:57N 37°49' W 122°22'0 0.0
2018-Apr-06 14:30N 37°49' W 122°22'0 0.0
2018-Apr-06 13:57N 37°49' W 122°22'0 0.0
2018-Apr-06 13:30N 37°49' W 122°22'0 0.0
2018-Apr-06 12:57N 37°49' W 122°22'0 0.0
2018-Apr-06 12:30N 37°49' W 122°22'0 0.0
2018-Apr-06 12:00N 37°49' W 122°22'0 0.0
2018-Apr-06 11:27N 37°49' W 122°22'0 0.0
2018-Apr-06 11:00N 37°49' W 122°22'0 0.0
2018-Apr-06 10:27N 37°49' W 122°22'0 0.0
2018-Apr-06 09:54N 37°49' W 122°22'0 0.0
2018-Apr-06 09:30N 37°49' W 122°22'0 0.0
2018-Apr-06 08:56N 37°49' W 122°22'0 0.0
2018-Apr-06 08:24N 37°49' W 122°22'0 0.0
2018-Apr-06 07:51N 37°49' W 122°22'0 0.0
2018-Apr-06 07:27N 37°49' W 122°22'0 0.0
2018-Apr-06 07:00N 37°49' W 122°22'0 0.0
2018-Apr-06 06:24N 37°49' W 122°22'0 0.0
2018-Apr-06 06:00N 37°49' W 122°22'0 0.0
2018-Apr-06 05:30N 37°49' W 122°22'0 0.0
2018-Apr-06 05:00N 37°49' W 122°22'0 0.0
2018-Apr-06 04:27N 37°49' W 122°22'0 0.0
2018-Apr-06 04:00N 37°49' W 122°22'0 0.0
2018-Apr-06 03:30N 37°49' W 122°22'0 0.0
2018-Apr-06 02:54N 37°49' W 122°22'0 0.0
2018-Apr-06 02:30N 37°49' W 122°22'0 0.0
2018-Apr-06 02:00N 37°49' W 122°22'0 0.0
2018-Apr-06 01:21N 37°49' W 122°22'0 0.0
2018-Apr-06 01:00N 37°49' W 122°22'0 0.0
2018-Apr-06 00:30N 37°49' W 122°22'0 0.0
2018-Apr-06 00:00N 37°49' W 122°22'0 0.0
2018-Apr-05 23:30N 37°49' W 122°22'0 0.0
2018-Apr-05 23:00N 37°49' W 122°22'0 0.0
2018-Apr-05 22:30N 37°49' W 122°22'0 0.0
2018-Apr-05 21:57N 37°49' W 122°22'0 0.0
2018-Apr-05 21:30N 37°49' W 122°22'0 0.0
2018-Apr-05 21:00N 37°49' W 122°22'0 0.0
2018-Apr-05 20:30N 37°49' W 122°22'0 0.0
2018-Apr-05 19:57N 37°49' W 122°22'0 0.0
2018-Apr-05 19:27N 37°49' W 122°22'0 0.0
2018-Apr-05 19:00N 37°49' W 122°22'0 0.0
2018-Apr-05 18:30N 37°49' W 122°22'0 0.0
2018-Apr-05 18:00N 37°49' W 122°22'0 0.0
2018-Apr-05 17:30N 37°49' W 122°22'0 0.0
2018-Apr-05 17:00N 37°49' W 122°22'0 0.0
2018-Apr-05 16:27N 37°49' W 122°22'0 0.0
2018-Apr-05 16:00N 37°49' W 122°22'0 0.0
2018-Apr-05 15:31N 37°49' W 122°22'0 0.0
2018-Apr-05 15:00N 37°49' W 122°22'0 0.0
2018-Apr-05 14:27N 37°49' W 122°22'0 0.0
2018-Apr-05 14:00N 37°49' W 122°22'0 0.0
2018-Apr-05 13:30N 37°49' W 122°22'0 0.0
2018-Apr-05 12:57N 37°49' W 122°22'0 0.0
2018-Apr-05 12:24N 37°49' W 122°22'0 0.0
2018-Apr-05 12:00N 37°49' W 122°22'0 0.0
2018-Apr-05 11:30N 37°49' W 122°22'0 0.0
2018-Apr-05 11:00N 37°49' W 122°22'0 0.0
2018-Apr-05 10:30N 37°49' W 122°22'0 0.0
2018-Apr-05 10:00N 37°49' W 122°22'0 0.0
2018-Apr-05 09:30N 37°49' W 122°22'0 0.0
2018-Apr-05 09:00N 37°49' W 122°22'0 0.0
2018-Apr-05 08:30N 37°49' W 122°22'0 0.0
2018-Apr-05 08:00N 37°49' W 122°22'0 0.0
2018-Apr-05 07:30N 37°49' W 122°22'0 0.0
2018-Apr-05 07:00N 37°49' W 122°22'0 0.0
2018-Apr-05 06:30N 37°49' W 122°22'0 0.0
2018-Apr-05 06:00N 37°49' W 122°22'0 0.0
2018-Apr-05 05:30N 37°49' W 122°22'0 0.0
2018-Apr-05 05:00N 37°49' W 122°22'0 0.0
2018-Apr-05 04:30N 37°49' W 122°22'0 0.0
2018-Apr-05 04:00N 37°49' W 122°22'0 0.0
2018-Apr-05 03:24N 37°49' W 122°22'0 0.0
2018-Apr-05 02:57N 37°49' W 122°22'0 0.0
2018-Apr-05 02:30N 37°49' W 122°22'0 0.0
2018-Apr-05 02:00N 37°49' W 122°22'0 0.0
2018-Apr-05 01:30N 37°49' W 122°22'0 0.0
2018-Apr-05 01:00N 37°49' W 122°22'0 0.0
2018-Apr-05 00:30N 37°49' W 122°22'0 0.0
2018-Apr-04 23:57N 37°49' W 122°22'0 0.0
2018-Apr-04 23:27N 37°49' W 122°22'0 0.0
2018-Apr-04 23:00N 37°49' W 122°22'0 0.0
2018-Apr-04 22:30N 37°49' W 122°22'0 0.0
2018-Apr-04 22:00N 37°49' W 122°22'0 0.0
2018-Apr-04 21:30N 37°49' W 122°22'0 0.0
2018-Apr-04 20:57N 37°49' W 122°22'0 0.0
2018-Apr-04 20:24N 37°49' W 122°22'0 0.0
2018-Apr-04 20:00N 37°49' W 122°22'0 0.0
2018-Apr-04 19:30N 37°49' W 122°22'0 0.0
2018-Apr-04 19:00N 37°49' W 122°22'0 0.0
2018-Apr-04 18:24N 37°49' W 122°22'0 0.0
2018-Apr-04 18:00N 37°49' W 122°22'0 0.0
2018-Apr-04 17:30N 37°49' W 122°22'0 0.0
2018-Apr-04 17:00N 37°49' W 122°22'0 0.0
2018-Apr-04 16:30N 37°49' W 122°22'0 0.0
2018-Apr-04 16:00N 37°49' W 122°22'0 0.0
2018-Apr-04 15:24N 37°49' W 122°22'0 0.0
2018-Apr-04 15:00N 37°49' W 122°22'0 0.0
2018-Apr-04 14:30N 37°49' W 122°22'0 0.0
2018-Apr-04 14:00N 37°49' W 122°22'0 0.0
2018-Apr-04 13:24N 37°49' W 122°22'0 0.0
2018-Apr-04 13:00N 37°49' W 122°22'0 0.0
2018-Apr-04 12:30N 37°49' W 122°22'0 0.0
2018-Apr-04 11:57N 37°49' W 122°22'0 0.0
2018-Apr-04 11:27N 37°49' W 122°22'0 0.0
2018-Apr-04 11:00N 37°49' W 122°22'0 0.0
2018-Apr-04 10:30N 37°49' W 122°22'0 0.0
2018-Apr-04 10:00N 37°49' W 122°22'0 0.0
2018-Apr-04 09:30N 37°49' W 122°22'0 0.0
2018-Apr-04 09:00N 37°49' W 122°22'0 0.0
2018-Apr-04 08:30N 37°49' W 122°22'0 0.0
2018-Apr-04 08:00N 37°49' W 122°22'0 0.0
2018-Apr-04 07:30N 37°49' W 122°22'0 0.0
2018-Apr-04 07:00N 37°49' W 122°22'0 0.0
2018-Apr-04 06:27N 37°49' W 122°22'0 0.0
2018-Apr-04 05:57N 37°49' W 122°22'0 0.0
2018-Apr-04 05:27N 37°49' W 122°22'0 0.0
2018-Apr-04 04:55N 37°49' W 122°22'0 0.0
2018-Apr-04 04:30N 37°49' W 122°22'0 0.0
2018-Apr-04 03:55N 37°49' W 122°22'0 0.0
2018-Apr-04 03:31N 37°49' W 122°22'0 0.0
2018-Apr-04 02:54N 37°49' W 122°22'0 0.0
2018-Apr-04 02:30N 37°49' W 122°22'0 0.0
2018-Apr-04 01:57N 37°49' W 122°22'0 0.0
2018-Apr-04 01:30N 37°49' W 122°22'0 0.0
2018-Apr-04 00:57N 37°49' W 122°22'0 0.0
2018-Apr-04 00:30N 37°49' W 122°22'0 0.0
2018-Apr-04 00:00N 37°49' W 122°22'0 0.0
2018-Apr-03 23:30N 37°49' W 122°22'0 0.0
2018-Apr-03 23:00N 37°49' W 122°22'0 0.0
2018-Apr-03 22:06N 37°49' W 122°22'0 0.0
2018-Apr-03 22:00N 37°49' W 122°22'0 0.0
2018-Apr-03 21:24N 37°49' W 122°22'0 0.0
2018-Apr-03 21:00N 37°49' W 122°22'0 0.0
2018-Apr-03 20:28N 37°49' W 122°22'0 0.0
2018-Apr-03 20:00N 37°49' W 122°22'0 0.0
2018-Apr-03 19:25N 37°49' W 122°22'  
Track history (hours):
 
Tides and Currents Weather Stations Pressure Air Temp Water Temp Dewpoint Dewpoint Depression Visibility Wind Speed Wind Dir Waves Ship Positions

CG Aspen

Last reported at 2018-Apr-13 19:20 UTC. Time now 2018-Apr-23 15:00 UTC.
Position N 37°49' W 122°22'.
Warning: this ship's position is 9 days out of date.

Length 68 m; draft 4 m.

Type: Law enforcement. MMSI: 303865000.

Date/timePositionNaut miles runAvg speedWind from/ knotsBaromVisibWave heightAir tempDewpointWater temp
2018-Apr-13 19:20N 37°49' W 122°22'0 0.6
2018-Apr-13 19:00N 37°49' W 122°21'0 0.7
2018-Apr-13 18:31N 37°48' W 122°21'4 7.9
2018-Apr-13 18:00N 37°49' W 122°26'2 4.9
2018-Apr-13 17:30N 37°48' W 122°23'4 7.8
2018-Apr-13 17:00N 37°45' W 122°21'3 5.3
2018-Apr-13 16:31N 37°43' W 122°20'0 0.0
2018-Apr-13 15:30N 37°43' W 122°20'0 0.0
2018-Apr-13 15:00N 37°43' W 122°20'0 0.0
2018-Apr-13 14:30N 37°43' W 122°20'0 0.0
2018-Apr-13 14:00N 37°43' W 122°20'0 0.0
2018-Apr-13 13:30N 37°43' W 122°20'0 0.0
2018-Apr-13 13:00N 37°43' W 122°20'0 0.0
2018-Apr-13 12:30N 37°43' W 122°20'0 0.0
2018-Apr-13 12:00N 37°43' W 122°20'0 0.1
2018-Apr-13 11:30N 37°43' W 122°20'0 0.0
2018-Apr-13 10:58N 37°43' W 122°20'0 0.0
2018-Apr-13 10:28N 37°43' W 122°20'0 0.0
2018-Apr-13 09:58N 37°43' W 122°20'0 0.0
2018-Apr-13 09:28N 37°43' W 122°20'0 0.0
2018-Apr-13 08:58N 37°43' W 122°20'0 0.1
2018-Apr-13 08:28N 37°43' W 122°20'0 0.0
2018-Apr-13 07:58N 37°43' W 122°20'0 0.0
2018-Apr-13 07:28N 37°43' W 122°20'0 0.0
2018-Apr-13 06:58N 37°43' W 122°20'0 0.0
2018-Apr-13 06:31N 37°43' W 122°20'0 0.0
2018-Apr-13 06:00N 37°43' W 122°20'0 0.0
2018-Apr-13 05:30N 37°43' W 122°20'0 0.0
2018-Apr-13 04:57N 37°43' W 122°20'0 0.0
2018-Apr-13 04:30N 37°43' W 122°20'0 0.0
2018-Apr-13 04:00N 37°43' W 122°20'0 0.1
2018-Apr-13 03:25N 37°43' W 122°20'0 0.1
2018-Apr-13 02:55N 37°43' W 122°20'0 0.1
2018-Apr-13 02:29N 37°43' W 122°20'0 0.0
2018-Apr-13 01:53N 37°43' W 122°20'0 0.0
2018-Apr-13 01:29N 37°43' W 122°20'0 0.0
2018-Apr-13 00:56N 37°43' W 122°20'0 0.0
2018-Apr-13 00:25N 37°43' W 122°20'0 0.0
2018-Apr-12 23:55N 37°43' W 122°20'0 0.0
2018-Apr-12 23:29N 37°43' W 122°20'0 0.0
2018-Apr-12 22:59N 37°43' W 122°20'0 0.1
2018-Apr-12 22:29N 37°43' W 122°20'0 0.1
2018-Apr-12 21:58N 37°43' W 122°20'0 0.0
2018-Apr-12 21:28N 37°43' W 122°20'0 0.1
2018-Apr-12 21:00N 37°43' W 122°20'1 1.8
2018-Apr-12 20:31N 37°43' W 122°19'1 2.4
2018-Apr-12 20:00N 37°42' W 122°20'3 5.2
2018-Apr-12 19:30N 37°44' W 122°21'1 2.6
2018-Apr-12 19:00N 37°45' W 122°22'0 0.0
2018-Apr-12 18:30N 37°45' W 122°22'0 0.0
2018-Apr-12 18:00N 37°45' W 122°22'0 0.0
2018-Apr-12 17:30N 37°45' W 122°22'0 0.0
2018-Apr-12 17:00N 37°45' W 122°22'0 0.0
2018-Apr-12 16:30N 37°45' W 122°22'3 6.4
2018-Apr-12 16:00N 37°43' W 122°21'1 1.3
2018-Apr-12 15:30N 37°42' W 122°20'0 0.1
2018-Apr-12 15:00N 37°42' W 122°20'0 0.0
2018-Apr-12 14:30N 37°42' W 122°20'0 0.0
2018-Apr-12 14:00N 37°42' W 122°20'0 0.0
2018-Apr-12 13:28N 37°42' W 122°20'0 0.0
2018-Apr-12 13:00N 37°42' W 122°20'0 0.0
2018-Apr-12 12:30N 37°42' W 122°20'0 0.0
2018-Apr-12 12:00N 37°43' W 122°20'0 0.0
2018-Apr-12 11:30N 37°43' W 122°20'0 0.1
2018-Apr-12 10:58N 37°43' W 122°20'0 0.1
2018-Apr-12 10:27N 37°43' W 122°20'0 0.0
2018-Apr-12 09:55N 37°43' W 122°20'0 0.0
2018-Apr-12 09:27N 37°43' W 122°20'0 0.0
2018-Apr-12 08:57N 37°43' W 122°20'0 0.1
2018-Apr-12 08:25N 37°42' W 122°20'0 0.0
2018-Apr-12 07:58N 37°42' W 122°20'0 0.1
2018-Apr-12 07:28N 37°42' W 122°20'0 0.0
2018-Apr-12 06:58N 37°42' W 122°20'0 0.1
2018-Apr-12 06:28N 37°42' W 122°20'0 0.1
2018-Apr-12 05:49N 37°42' W 122°20'0 0.0
2018-Apr-12 05:28N 37°42' W 122°20'0 0.1
2018-Apr-12 04:55N 37°42' W 122°20'0 0.0
2018-Apr-12 04:31N 37°42' W 122°20'0 0.0
2018-Apr-12 03:52N 37°42' W 122°20'0 0.0
2018-Apr-12 03:31N 37°42' W 122°20'0 0.0
2018-Apr-12 03:00N 37°42' W 122°20'0 0.1
2018-Apr-12 02:30N 37°42' W 122°20'0 0.2
2018-Apr-12 02:00N 37°42' W 122°20'3 5.0
2018-Apr-12 01:30N 37°44' W 122°21'5 9.2
2018-Apr-12 01:01N 37°49' W 122°24'5 9.9
2018-Apr-12 00:31N 37°48' W 122°30'510.7
2018-Apr-12 00:00N 37°46' W 122°36'5 9.2
2018-Apr-11 23:30N 37°42' W 122°37'612.2
2018-Apr-11 23:00N 37°36' W 122°37'612.4
2018-Apr-11 22:30N 37°30' W 122°40'612.8
2018-Apr-11 22:00N 37°23' W 122°40'612.5
2018-Apr-11 21:30N 37°17' W 122°41'713.1
2018-Apr-11 21:00N 37°12' W 122°47'712.8
2018-Apr-11 20:29N 37°07' W 122°52'13 1.4
2018-Apr-11 11:05N 36°55' W 122°57'1 7.2
2018-Apr-11 10:59N 36°55' W 122°56'0 0.3
2018-Apr-11 10:30N 36°55' W 122°56'2 2.9
2018-Apr-11 09:56N 36°55' W 122°58'3 6.1
2018-Apr-11 09:30N 36°54' W 122°55'4 7.5
2018-Apr-11 08:57N 36°55' W 123°00'4 7.6
2018-Apr-11 08:23N 36°56' W 123°05'9 6.1
2018-Apr-11 07:00N 36°55' W 122°55'6 7.6
2018-Apr-11 06:09N 36°55' W 123°03'61 5.8
2018-Apr-10 19:38N 36°48' W 121°48'0 0.0
2018-Apr-10 19:13N 36°48' W 121°48'7 6.5
2018-Apr-10 18:10N 36°45' W 121°55'2 9.1
2018-Apr-10 18:00N 36°44' W 121°57'5 8.6
2018-Apr-10 17:23N 36°39' W 121°59'4 1.6
2018-Apr-10 14:49N 36°35' W 122°01'3 6.4
2018-Apr-10 14:25N 36°36' W 122°04'3 7.9
2018-Apr-10 14:00N 36°36' W 122°08'5 9.0
2018-Apr-10 13:30N 36°37' W 122°14'4 7.6
2018-Apr-10 13:00N 36°37' W 122°18'3 6.8
2018-Apr-10 12:30N 36°38' W 122°22'3 5.3
2018-Apr-10 12:00N 36°39' W 122°26'2 4.2
2018-Apr-10 11:30N 36°40' W 122°27'2 4.0
2018-Apr-10 11:00N 36°42' W 122°29'2 4.7
2018-Apr-10 10:30N 36°43' W 122°31'3 6.0
2018-Apr-10 10:00N 36°46' W 122°33'3 5.8
2018-Apr-10 09:30N 36°48' W 122°36'3 5.5
2018-Apr-10 09:00N 36°49' W 122°39'3 5.1
2018-Apr-10 08:30N 36°51' W 122°41'2 4.6
2018-Apr-10 08:00N 36°53' W 122°42'2 4.7
2018-Apr-10 07:30N 36°56' W 122°42'2 4.7
2018-Apr-10 06:59N 36°58' W 122°43'2 4.8
2018-Apr-10 06:30N 37°00' W 122°43'3 5.2
2018-Apr-10 06:00N 37°03' W 122°43'3 5.7
2018-Apr-10 05:29N 37°06' W 122°43'3 5.8
2018-Apr-10 05:00N 37°09' W 122°43'3 5.6
2018-Apr-10 04:30N 37°11' W 122°43'3 6.0
2018-Apr-10 04:00N 37°14' W 122°43'3 6.1
2018-Apr-10 03:30N 37°17' W 122°43'3 6.1
2018-Apr-10 03:01N 37°20' W 122°44'3 6.1
2018-Apr-10 02:30N 37°24' W 122°44'3 6.2
2018-Apr-10 02:00N 37°27' W 122°44'3 6.5
2018-Apr-10 01:30N 37°30' W 122°44'3 7.0
2018-Apr-10 01:00N 37°32' W 122°40'5 9.4
2018-Apr-10 00:30N 37°32' W 122°34'1 1.6
2018-Apr-10 00:00N 37°32' W 122°33'0 0.2
2018-Apr-09 23:30N 37°32' W 122°33'1 1.8
2018-Apr-09 23:01N 37°32' W 122°34'5 9.6
2018-Apr-09 22:30N 37°36' W 122°36'611.2
2018-Apr-09 22:00N 37°42' W 122°37'5 9.3
2018-Apr-09 21:30N 37°46' W 122°37'612.5
2018-Apr-09 21:01N 37°49' W 122°30'5 9.9
2018-Apr-09 20:30N 37°49' W 122°23'5 9.9
2018-Apr-09 20:00N 37°44' W 122°21'2 4.8
2018-Apr-09 19:30N 37°42' W 122°19'0 0.8
2018-Apr-09 19:00N 37°43' W 122°20'1 1.7
2018-Apr-09 18:30N 37°43' W 122°19'1 1.2
2018-Apr-09 18:00N 37°43' W 122°19'1 2.8
2018-Apr-09 17:30N 37°42' W 122°20'2 4.1
2018-Apr-09 17:00N 37°44' W 122°21'3 6.3
2018-Apr-09 16:30N 37°47' W 122°22'2 3.1
2018-Apr-09 15:58N 37°49' W 122°22'0 0.0
2018-Apr-09 15:28N 37°49' W 122°22'0 0.0
2018-Apr-09 14:58N 37°49' W 122°22'0 0.0
2018-Apr-09 14:29N 37°49' W 122°22'0 0.0
2018-Apr-09 13:59N 37°49' W 122°22'0 0.0
2018-Apr-09 13:25N 37°49' W 122°22'0 0.0
2018-Apr-09 12:59N 37°49' W 122°22'0 0.0
2018-Apr-09 12:29N 37°49' W 122°22'0 0.0
2018-Apr-09 11:55N 37°49' W 122°22'0 0.0
2018-Apr-09 11:28N 37°49' W 122°22'0 0.0
2018-Apr-09 10:58N 37°49' W 122°22'0 0.0
2018-Apr-09 10:28N 37°49' W 122°22'0 0.0
2018-Apr-09 09:55N 37°49' W 122°22'0 0.0
2018-Apr-09 09:28N 37°49' W 122°22'0 0.0
2018-Apr-09 08:55N 37°49' W 122°22'0 0.0
2018-Apr-09 08:28N 37°49' W 122°22'0 0.0
2018-Apr-09 07:58N 37°49' W 122°22'0 0.0
2018-Apr-09 07:29N 37°49' W 122°22'0 0.0
2018-Apr-09 06:59N 37°49' W 122°22'0 0.0
2018-Apr-09 06:29N 37°49' W 122°22'0 0.0
2018-Apr-09 05:59N 37°49' W 122°22'0 0.0
2018-Apr-09 05:20N 37°49' W 122°22'0 0.0
2018-Apr-09 04:56N 37°49' W 122°22'0 0.0
2018-Apr-09 04:23N 37°49' W 122°22'0 0.0
2018-Apr-09 03:56N 37°49' W 122°22'0 0.0
2018-Apr-09 03:29N 37°49' W 122°22'0 0.0
2018-Apr-09 02:52N 37°49' W 122°22'0 0.0
2018-Apr-09 02:28N 37°49' W 122°22'0 0.0
2018-Apr-09 01:52N 37°49' W 122°22'0 0.0
2018-Apr-09 01:28N 37°49' W 122°22'0 0.0
2018-Apr-09 00:58N 37°49' W 122°22'0 0.0
2018-Apr-09 00:28N 37°49' W 122°22'0 0.0
2018-Apr-08 23:52N 37°49' W 122°22'0 0.0
2018-Apr-08 23:28N 37°49' W 122°22'0 0.0
2018-Apr-08 22:59N 37°49' W 122°22'0 0.0
2018-Apr-08 22:29N 37°49' W 122°22'0 0.0
2018-Apr-08 21:59N 37°49' W 122°22'0 0.0
2018-Apr-08 21:29N 37°49' W 122°22'0 0.0
2018-Apr-08 20:59N 37°49' W 122°22'0 0.0
2018-Apr-08 20:29N 37°49' W 122°22'0 0.0
2018-Apr-08 19:53N 37°49' W 122°22'0 0.0
2018-Apr-08 19:29N 37°49' W 122°22'0 0.0
2018-Apr-08 18:58N 37°49' W 122°22'0 0.0
2018-Apr-08 18:28N 37°49' W 122°22'0 0.0
2018-Apr-08 17:58N 37°49' W 122°22'0 0.0
2018-Apr-08 17:26N 37°49' W 122°22'0 0.0
2018-Apr-08 16:58N 37°49' W 122°22'0 0.0
2018-Apr-08 16:28N 37°49' W 122°22'0 0.0
2018-Apr-08 15:55N 37°49' W 122°22'0 0.0
2018-Apr-08 15:29N 37°49' W 122°22'0 0.0
2018-Apr-08 14:59N 37°49' W 122°22'0 0.0
2018-Apr-08 14:25N 37°49' W 122°22'0 0.0
2018-Apr-08 13:59N 37°49' W 122°22'0 0.0
2018-Apr-08 13:29N 37°49' W 122°22'0 0.0
2018-Apr-08 12:59N 37°49' W 122°22'0 0.0
2018-Apr-08 12:29N 37°49' W 122°22'0 0.0
2018-Apr-08 11:58N 37°49' W 122°22'0 0.0
2018-Apr-08 11:28N 37°49' W 122°22'0 0.0
2018-Apr-08 10:55N 37°49' W 122°22'0 0.0
2018-Apr-08 10:28N 37°49' W 122°22'0 0.0
2018-Apr-08 09:58N 37°49' W 122°22'0 0.0
2018-Apr-08 09:26N 37°49' W 122°22'0 0.0
2018-Apr-08 08:56N 37°49' W 122°22'0 0.0
2018-Apr-08 08:29N 37°49' W 122°22'0 0.0
2018-Apr-08 07:56N 37°49' W 122°22'0 0.0
2018-Apr-08 07:26N 37°49' W 122°22'0 0.0
2018-Apr-08 06:56N 37°49' W 122°22'0 0.0
2018-Apr-08 06:29N 37°49' W 122°22'0 0.0
2018-Apr-08 05:59N 37°49' W 122°22'0 0.0
2018-Apr-08 05:26N 37°49' W 122°22'0 0.0
2018-Apr-08 04:59N 37°49' W 122°22'0 0.0
2018-Apr-08 04:29N 37°49' W 122°22'0 0.0
2018-Apr-08 03:59N 37°49' W 122°22'0 0.0
2018-Apr-08 03:25N 37°49' W 122°22'0 0.0
2018-Apr-08 02:59N 37°49' W 122°22'0 0.0
2018-Apr-08 02:28N 37°49' W 122°22'0 0.0
2018-Apr-08 01:58N 37°49' W 122°22'0 0.0
2018-Apr-08 01:19N 37°49' W 122°22'0 0.0
2018-Apr-08 00:58N 37°49' W 122°22'0 0.0
2018-Apr-08 00:28N 37°49' W 122°22'0 0.0
2018-Apr-07 23:58N 37°49' W 122°22'0 0.0
2018-Apr-07 23:26N 37°49' W 122°22'0 0.0
2018-Apr-07 22:56N 37°49' W 122°22'0 0.0
2018-Apr-07 22:26N 37°49' W 122°22'0 0.0
2018-Apr-07 21:59N 37°49' W 122°22'0 0.0
2018-Apr-07 21:29N 37°49' W 122°22'0 0.0
2018-Apr-07 20:59N 37°49' W 122°22'0 0.0
2018-Apr-07 20:29N 37°49' W 122°22'0 0.0
2018-Apr-07 19:59N 37°49' W 122°22'0 0.0
2018-Apr-07 19:28N 37°49' W 122°22'0 0.0
2018-Apr-07 18:58N 37°49' W 122°22'0 0.0
2018-Apr-07 18:28N 37°49' W 122°22'0 0.0
2018-Apr-07 17:55N 37°49' W 122°22'0 0.0
2018-Apr-07 17:28N 37°49' W 122°22'0 0.0
2018-Apr-07 16:59N 37°49' W 122°22'0 0.0
2018-Apr-07 16:23N 37°49' W 122°22'0 0.0
2018-Apr-07 15:59N 37°49' W 122°22'0 0.0
2018-Apr-07 15:29N 37°49' W 122°22'0 0.0
2018-Apr-07 14:59N 37°49' W 122°22'0 0.0
2018-Apr-07 14:26N 37°49' W 122°22'0 0.0
2018-Apr-07 13:59N 37°49' W 122°22'0 0.0
2018-Apr-07 13:26N 37°49' W 122°22'0 0.0
2018-Apr-07 12:59N 37°49' W 122°22'0 0.0
2018-Apr-07 12:29N 37°49' W 122°22'0 0.0
2018-Apr-07 11:59N 37°49' W 122°22'0 0.0
2018-Apr-07 11:29N 37°49' W 122°22'0 0.0
2018-Apr-07 10:59N 37°49' W 122°22'0 0.0
2018-Apr-07 10:30N 37°49' W 122°22'0 0.0
2018-Apr-07 10:00N 37°49' W 122°22'0 0.0
2018-Apr-07 09:30N 37°49' W 122°22'0 0.0
2018-Apr-07 09:00N 37°49' W 122°22'0 0.0
2018-Apr-07 08:30N 37°49' W 122°22'0 0.0
2018-Apr-07 08:00N 37°49' W 122°22'0 0.0
2018-Apr-07 07:27N 37°49' W 122°22'0 0.0
2018-Apr-07 07:00N 37°49' W 122°22'0 0.0
2018-Apr-07 06:30N 37°49' W 122°22'0 0.0
2018-Apr-07 06:00N 37°49' W 122°22'0 0.0
2018-Apr-07 05:30N 37°49' W 122°22'0 0.0
2018-Apr-07 05:00N 37°49' W 122°22'0 0.0
2018-Apr-07 04:27N 37°49' W 122°22'0 0.0
2018-Apr-07 04:00N 37°49' W 122°22'0 0.0
2018-Apr-07 03:27N 37°49' W 122°22'0 0.0
2018-Apr-07 03:00N 37°49' W 122°22'0 0.0
2018-Apr-07 02:30N 37°49' W 122°22'0 0.0
2018-Apr-07 02:00N 37°49' W 122°22'0 0.0
2018-Apr-07 01:30N 37°49' W 122°22'0 0.0
2018-Apr-07 01:00N 37°49' W 122°22'0 0.0
2018-Apr-07 00:24N 37°49' W 122°22'0 0.0
2018-Apr-07 00:00N 37°49' W 122°22'0 0.0
2018-Apr-06 23:30N 37°49' W 122°22'0 0.0
2018-Apr-06 23:00N 37°49' W 122°22'0 0.0
2018-Apr-06 22:24N 37°49' W 122°22'0 0.0
2018-Apr-06 21:54N 37°49' W 122°22'0 0.0
2018-Apr-06 21:30N 37°49' W 122°22'0 0.0
2018-Apr-06 21:00N 37°49' W 122°22'0 0.0
2018-Apr-06 20:30N 37°49' W 122°22'0 0.0
2018-Apr-06 20:00N 37°49' W 122°22'0 0.0
2018-Apr-06 19:27N 37°49' W 122°22'0 0.0
2018-Apr-06 18:57N 37°49' W 122°22'0 0.0
2018-Apr-06 18:29N 37°49' W 122°22'0 0.0
2018-Apr-06 18:00N 37°49' W 122°22'0 0.0
2018-Apr-06 17:27N 37°49' W 122°22'0 0.0
2018-Apr-06 17:00N 37°49' W 122°22'0 0.0
2018-Apr-06 16:30N 37°49' W 122°22'0 0.0
2018-Apr-06 16:00N 37°49' W 122°22'0 0.0
2018-Apr-06 15:30N 37°49' W 122°22'0 0.0
2018-Apr-06 14:57N 37°49' W 122°22'0 0.0
2018-Apr-06 14:30N 37°49' W 122°22'0 0.0
2018-Apr-06 13:57N 37°49' W 122°22'0 0.0
2018-Apr-06 13:30N 37°49' W 122°22'0 0.0
2018-Apr-06 12:57N 37°49' W 122°22'0 0.0
2018-Apr-06 12:30N 37°49' W 122°22'0 0.0
2018-Apr-06 12:00N 37°49' W 122°22'0 0.0
2018-Apr-06 11:27N 37°49' W 122°22'0 0.0
2018-Apr-06 11:00N 37°49' W 122°22'0 0.0
2018-Apr-06 10:27N 37°49' W 122°22'0 0.0
2018-Apr-06 09:54N 37°49' W 122°22'0 0.0
2018-Apr-06 09:30N 37°49' W 122°22'0 0.0
2018-Apr-06 08:56N 37°49' W 122°22'0 0.0
2018-Apr-06 08:24N 37°49' W 122°22'0 0.0
2018-Apr-06 07:51N 37°49' W 122°22'0 0.0
2018-Apr-06 07:27N 37°49' W 122°22'0 0.0
2018-Apr-06 07:00N 37°49' W 122°22'0 0.0
2018-Apr-06 06:24N 37°49' W 122°22'0 0.0
2018-Apr-06 06:00N 37°49' W 122°22'0 0.0
2018-Apr-06 05:30N 37°49' W 122°22'0 0.0
2018-Apr-06 05:00N 37°49' W 122°22'0 0.0
2018-Apr-06 04:27N 37°49' W 122°22'0 0.0
2018-Apr-06 04:00N 37°49' W 122°22'0 0.0
2018-Apr-06 03:30N 37°49' W 122°22'0 0.0
2018-Apr-06 02:54N 37°49' W 122°22'0 0.0
2018-Apr-06 02:30N 37°49' W 122°22'0 0.0
2018-Apr-06 02:00N 37°49' W 122°22'0 0.0
2018-Apr-06 01:21N 37°49' W 122°22'0 0.0
2018-Apr-06 01:00N 37°49' W 122°22'0 0.0
2018-Apr-06 00:30N 37°49' W 122°22'0 0.0
2018-Apr-06 00:00N 37°49' W 122°22'0 0.0
2018-Apr-05 23:30N 37°49' W 122°22'0 0.0
2018-Apr-05 23:00N 37°49' W 122°22'0 0.0
2018-Apr-05 22:30N 37°49' W 122°22'0 0.0
2018-Apr-05 21:57N 37°49' W 122°22'0 0.0
2018-Apr-05 21:30N 37°49' W 122°22'0 0.0
2018-Apr-05 21:00N 37°49' W 122°22'0 0.0
2018-Apr-05 20:30N 37°49' W 122°22'0 0.0
2018-Apr-05 19:57N 37°49' W 122°22'0 0.0
2018-Apr-05 19:27N 37°49' W 122°22'0 0.0
2018-Apr-05 19:00N 37°49' W 122°22'0 0.0
2018-Apr-05 18:30N 37°49' W 122°22'0 0.0
2018-Apr-05 18:00N 37°49' W 122°22'0 0.0
2018-Apr-05 17:30N 37°49' W 122°22'0 0.0
2018-Apr-05 17:00N 37°49' W 122°22'0 0.0
2018-Apr-05 16:27N 37°49' W 122°22'0 0.0
2018-Apr-05 16:00N 37°49' W 122°22'0 0.0
2018-Apr-05 15:31N 37°49' W 122°22'0 0.0
2018-Apr-05 15:00N 37°49' W 122°22'0 0.0
2018-Apr-05 14:27N 37°49' W 122°22'0 0.0
2018-Apr-05 14:00N 37°49' W 122°22'0 0.0
2018-Apr-05 13:30N 37°49' W 122°22'0 0.0
2018-Apr-05 12:57N 37°49' W 122°22'0 0.0
2018-Apr-05 12:24N 37°49' W 122°22'0 0.0
2018-Apr-05 12:00N 37°49' W 122°22'0 0.0
2018-Apr-05 11:30N 37°49' W 122°22'0 0.0
2018-Apr-05 11:00N 37°49' W 122°22'0 0.0
2018-Apr-05 10:30N 37°49' W 122°22'0 0.0
2018-Apr-05 10:00N 37°49' W 122°22'0 0.0
2018-Apr-05 09:30N 37°49' W 122°22'0 0.0
2018-Apr-05 09:00N 37°49' W 122°22'0 0.0
2018-Apr-05 08:30N 37°49' W 122°22'0 0.0
2018-Apr-05 08:00N 37°49' W 122°22'0 0.0
2018-Apr-05 07:30N 37°49' W 122°22'0 0.0
2018-Apr-05 07:00N 37°49' W 122°22'0 0.0
2018-Apr-05 06:30N 37°49' W 122°22'0 0.0
2018-Apr-05 06:00N 37°49' W 122°22'0 0.0
2018-Apr-05 05:30N 37°49' W 122°22'0 0.0
2018-Apr-05 05:00N 37°49' W 122°22'0 0.0
2018-Apr-05 04:30N 37°49' W 122°22'0 0.0
2018-Apr-05 04:00N 37°49' W 122°22'0 0.0
2018-Apr-05 03:24N 37°49' W 122°22'0 0.0
2018-Apr-05 02:57N 37°49' W 122°22'0 0.0
2018-Apr-05 02:30N 37°49' W 122°22'0 0.0
2018-Apr-05 02:00N 37°49' W 122°22'0 0.0
2018-Apr-05 01:30N 37°49' W 122°22'0 0.0
2018-Apr-05 01:00N 37°49' W 122°22'0 0.0
2018-Apr-05 00:30N 37°49' W 122°22'0 0.0
2018-Apr-04 23:57N 37°49' W 122°22'0 0.0
2018-Apr-04 23:27N 37°49' W 122°22'0 0.0
2018-Apr-04 23:00N 37°49' W 122°22'0 0.0
2018-Apr-04 22:30N 37°49' W 122°22'0 0.0
2018-Apr-04 22:00N 37°49' W 122°22'0 0.0
2018-Apr-04 21:30N 37°49' W 122°22'0 0.0
2018-Apr-04 20:57N 37°49' W 122°22'0 0.0
2018-Apr-04 20:24N 37°49' W 122°22'0 0.0
2018-Apr-04 20:00N 37°49' W 122°22'0 0.0
2018-Apr-04 19:30N 37°49' W 122°22'0 0.0
2018-Apr-04 19:00N 37°49' W 122°22'0 0.0
2018-Apr-04 18:24N 37°49' W 122°22'0 0.0
2018-Apr-04 18:00N 37°49' W 122°22'0 0.0
2018-Apr-04 17:30N 37°49' W 122°22'0 0.0
2018-Apr-04 17:00N 37°49' W 122°22'0 0.0
2018-Apr-04 16:30N 37°49' W 122°22'0 0.0
2018-Apr-04 16:00N 37°49' W 122°22'0 0.0
2018-Apr-04 15:24N 37°49' W 122°22'0 0.0
2018-Apr-04 15:00N 37°49' W 122°22'0 0.0
2018-Apr-04 14:30N 37°49' W 122°22'0 0.0
2018-Apr-04 14:00N 37°49' W 122°22'0 0.0
2018-Apr-04 13:24N 37°49' W 122°22'0 0.0
2018-Apr-04 13:00N 37°49' W 122°22'0 0.0
2018-Apr-04 12:30N 37°49' W 122°22'0 0.0
2018-Apr-04 11:57N 37°49' W 122°22'0 0.0
2018-Apr-04 11:27N 37°49' W 122°22'0 0.0
2018-Apr-04 11:00N 37°49' W 122°22'0 0.0
2018-Apr-04 10:30N 37°49' W 122°22'0 0.0
2018-Apr-04 10:00N 37°49' W 122°22'0 0.0
2018-Apr-04 09:30N 37°49' W 122°22'0 0.0
2018-Apr-04 09:00N 37°49' W 122°22'0 0.0
2018-Apr-04 08:30N 37°49' W 122°22'0 0.0
2018-Apr-04 08:00N 37°49' W 122°22'0 0.0
2018-Apr-04 07:30N 37°49' W 122°22'0 0.0
2018-Apr-04 07:00N 37°49' W 122°22'0 0.0
2018-Apr-04 06:27N 37°49' W 122°22'0 0.0
2018-Apr-04 05:57N 37°49' W 122°22'0 0.0
2018-Apr-04 05:27N 37°49' W 122°22'0 0.0
2018-Apr-04 04:55N 37°49' W 122°22'0 0.0
2018-Apr-04 04:30N 37°49' W 122°22'0 0.0
2018-Apr-04 03:55N 37°49' W 122°22'0 0.0
2018-Apr-04 03:31N 37°49' W 122°22'0 0.0
2018-Apr-04 02:54N 37°49' W 122°22'0 0.0
2018-Apr-04 02:30N 37°49' W 122°22'0 0.0
2018-Apr-04 01:57N 37°49' W 122°22'0 0.0
2018-Apr-04 01:30N 37°49' W 122°22'0 0.0
2018-Apr-04 00:57N 37°49' W 122°22'0 0.0
2018-Apr-04 00:30N 37°49' W 122°22'0 0.0
2018-Apr-04 00:00N 37°49' W 122°22'0 0.0
2018-Apr-03 23:30N 37°49' W 122°22'0 0.0
2018-Apr-03 23:00N 37°49' W 122°22'0 0.0
2018-Apr-03 22:06N 37°49' W 122°22'0 0.0
2018-Apr-03 22:00N 37°49' W 122°22'0 0.0
2018-Apr-03 21:24N 37°49' W 122°22'0 0.0
2018-Apr-03 21:00N 37°49' W 122°22'0 0.0
2018-Apr-03 20:28N 37°49' W 122°22'0 0.0
2018-Apr-03 20:00N 37°49' W 122°22'0 0.0
2018-Apr-03 19:25N 37°49' W 122°22'  

Dump ship's entire track history